sensor_id;sensor_type;location;lat;lon;timestamp;P1;durP1;ratioP1;P2;durP2;ratioP2
39956;SDS011;48483;44.640;7.494;2022-08-25T00:01:13;2.58;;;1.90;;
39956;SDS011;48483;44.640;7.494;2022-08-25T00:03:41;6.50;;;2.17;;
39956;SDS011;48483;44.640;7.494;2022-08-25T00:06:10;3.13;;;1.95;;
39956;SDS011;48483;44.640;7.494;2022-08-25T00:08:37;5.88;;;1.98;;
39956;SDS011;48483;44.640;7.494;2022-08-25T00:11:05;2.40;;;2.00;;
39956;SDS011;48483;44.640;7.494;2022-08-25T00:13:34;4.22;;;2.20;;
39956;SDS011;48483;44.640;7.494;2022-08-25T00:16:01;4.43;;;1.95;;
39956;SDS011;48483;44.640;7.494;2022-08-25T00:18:27;7.10;;;2.05;;
39956;SDS011;48483;44.640;7.494;2022-08-25T00:20:54;3.05;;;2.25;;
39956;SDS011;48483;44.640;7.494;2022-08-25T00:23:21;2.78;;;1.90;;
39956;SDS011;48483;44.640;7.494;2022-08-25T00:25:49;5.53;;;2.40;;
39956;SDS011;48483;44.640;7.494;2022-08-25T00:28:16;3.33;;;1.92;;
39956;SDS011;48483;44.640;7.494;2022-08-25T00:30:44;4.82;;;2.22;;
39956;SDS011;48483;44.640;7.494;2022-08-25T00:33:11;2.88;;;1.95;;
39956;SDS011;48483;44.640;7.494;2022-08-25T00:35:39;4.28;;;2.10;;
39956;SDS011;48483;44.640;7.494;2022-08-25T00:38:07;4.05;;;2.20;;
39956;SDS011;48483;44.640;7.494;2022-08-25T00:40:34;4.88;;;2.10;;
39956;SDS011;48483;44.640;7.494;2022-08-25T00:43:01;4.05;;;2.28;;
39956;SDS011;48483;44.640;7.494;2022-08-25T00:45:28;5.10;;;2.28;;
39956;SDS011;48483;44.640;7.494;2022-08-25T00:47:56;3.75;;;2.30;;
39956;SDS011;48483;44.640;7.494;2022-08-25T00:50:23;6.18;;;2.17;;
39956;SDS011;48483;44.640;7.494;2022-08-25T00:52:51;3.88;;;2.33;;
39956;SDS011;48483;44.640;7.494;2022-08-25T00:55:22;2.80;;;2.05;;
39956;SDS011;48483;44.640;7.494;2022-08-25T00:57:53;3.30;;;2.30;;
39956;SDS011;48483;44.640;7.494;2022-08-25T01:00:23;4.40;;;2.25;;
39956;SDS011;48483;44.640;7.494;2022-08-25T01:02:52;2.90;;;2.53;;
39956;SDS011;48483;44.640;7.494;2022-08-25T01:05:20;3.20;;;2.22;;
39956;SDS011;48483;44.640;7.494;2022-08-25T01:07:47;2.00;;;1.58;;
39956;SDS011;48483;44.640;7.494;2022-08-25T01:10:15;4.60;;;2.83;;
39956;SDS011;48483;44.640;7.494;2022-08-25T01:12:43;4.40;;;1.90;;
39956;SDS011;48483;44.640;7.494;2022-08-25T01:15:10;4.50;;;2.13;;
39956;SDS011;48483;44.640;7.494;2022-08-25T01:17:44;3.83;;;2.42;;
39956;SDS011;48483;44.640;7.494;2022-08-25T01:20:12;5.90;;;2.20;;
39956;SDS011;48483;44.640;7.494;2022-08-25T01:22:40;2.80;;;2.25;;
39956;SDS011;48483;44.640;7.494;2022-08-25T01:25:11;3.33;;;2.13;;
39956;SDS011;48483;44.640;7.494;2022-08-25T01:27:46;5.97;;;2.25;;
39956;SDS011;48483;44.640;7.494;2022-08-25T01:30:12;5.10;;;2.30;;
39956;SDS011;48483;44.640;7.494;2022-08-25T01:32:39;3.20;;;2.05;;
39956;SDS011;48483;44.640;7.494;2022-08-25T01:35:06;3.67;;;2.40;;
39956;SDS011;48483;44.640;7.494;2022-08-25T01:37:34;3.72;;;2.58;;
39956;SDS011;48483;44.640;7.494;2022-08-25T01:40:02;4.10;;;2.20;;
39956;SDS011;48483;44.640;7.494;2022-08-25T01:42:32;5.80;;;2.25;;
39956;SDS011;48483;44.640;7.494;2022-08-25T01:45:07;3.35;;;2.05;;
39956;SDS011;48483;44.640;7.494;2022-08-25T01:47:35;4.15;;;2.33;;
39956;SDS011;48483;44.640;7.494;2022-08-25T01:50:03;5.80;;;3.38;;
39956;SDS011;48483;44.640;7.494;2022-08-25T01:52:32;6.65;;;3.50;;
39956;SDS011;48483;44.640;7.494;2022-08-25T01:55:03;6.85;;;3.42;;
39956;SDS011;48483;44.640;7.494;2022-08-25T01:57:31;7.30;;;4.10;;
39956;SDS011;48483;44.640;7.494;2022-08-25T01:59:58;4.68;;;3.28;;
39956;SDS011;48483;44.640;7.494;2022-08-25T02:02:25;4.60;;;2.88;;
39956;SDS011;48483;44.640;7.494;2022-08-25T02:04:51;4.10;;;3.33;;
39956;SDS011;48483;44.640;7.494;2022-08-25T02:07:18;6.20;;;3.30;;
39956;SDS011;48483;44.640;7.494;2022-08-25T02:09:45;4.68;;;2.75;;
39956;SDS011;48483;44.640;7.494;2022-08-25T02:12:13;8.02;;;3.45;;
39956;SDS011;48483;44.640;7.494;2022-08-25T02:14:41;5.82;;;2.95;;
39956;SDS011;48483;44.640;7.494;2022-08-25T02:17:08;5.70;;;2.65;;
39956;SDS011;48483;44.640;7.494;2022-08-25T02:19:35;3.53;;;2.65;;
39956;SDS011;48483;44.640;7.494;2022-08-25T02:22:02;4.65;;;2.47;;
39956;SDS011;48483;44.640;7.494;2022-08-25T02:24:29;3.80;;;2.30;;
39956;SDS011;48483;44.640;7.494;2022-08-25T02:26:56;6.25;;;2.78;;
39956;SDS011;48483;44.640;7.494;2022-08-25T02:29:24;3.95;;;2.58;;
39956;SDS011;48483;44.640;7.494;2022-08-25T02:31:51;5.28;;;2.65;;
39956;SDS011;48483;44.640;7.494;2022-08-25T02:34:18;8.45;;;3.00;;
39956;SDS011;48483;44.640;7.494;2022-08-25T02:36:44;3.33;;;2.78;;
39956;SDS011;48483;44.640;7.494;2022-08-25T02:39:11;4.40;;;3.10;;
39956;SDS011;48483;44.640;7.494;2022-08-25T02:41:38;4.97;;;2.67;;
39956;SDS011;48483;44.640;7.494;2022-08-25T02:44:05;4.53;;;2.80;;
39956;SDS011;48483;44.640;7.494;2022-08-25T02:46:34;3.70;;;2.40;;
39956;SDS011;48483;44.640;7.494;2022-08-25T02:49:02;6.40;;;2.70;;
39956;SDS011;48483;44.640;7.494;2022-08-25T02:51:29;4.47;;;2.50;;
39956;SDS011;48483;44.640;7.494;2022-08-25T02:53:57;3.97;;;2.45;;
39956;SDS011;48483;44.640;7.494;2022-08-25T02:56:24;4.80;;;2.67;;
39956;SDS011;48483;44.640;7.494;2022-08-25T02:58:51;3.38;;;2.53;;
39956;SDS011;48483;44.640;7.494;2022-08-25T03:01:18;3.70;;;2.47;;
39956;SDS011;48483;44.640;7.494;2022-08-25T03:03:47;3.88;;;2.97;;
39956;SDS011;48483;44.640;7.494;2022-08-25T03:06:15;4.00;;;2.80;;
39956;SDS011;48483;44.640;7.494;2022-08-25T03:08:45;4.43;;;2.85;;
39956;SDS011;48483;44.640;7.494;2022-08-25T03:11:12;4.03;;;2.63;;
39956;SDS011;48483;44.640;7.494;2022-08-25T03:13:38;5.53;;;2.83;;
39956;SDS011;48483;44.640;7.494;2022-08-25T03:16:05;5.00;;;2.33;;
39956;SDS011;48483;44.640;7.494;2022-08-25T03:18:33;3.83;;;2.50;;
39956;SDS011;48483;44.640;7.494;2022-08-25T03:21:02;7.28;;;3.30;;
39956;SDS011;48483;44.640;7.494;2022-08-25T03:23:29;4.13;;;2.60;;
39956;SDS011;48483;44.640;7.494;2022-08-25T03:25:55;3.72;;;2.53;;
39956;SDS011;48483;44.640;7.494;2022-08-25T03:28:40;4.78;;;2.92;;
39956;SDS011;48483;44.640;7.494;2022-08-25T03:31:07;6.07;;;2.50;;
39956;SDS011;48483;44.640;7.494;2022-08-25T03:33:34;7.10;;;2.72;;
39956;SDS011;48483;44.640;7.494;2022-08-25T03:36:03;4.78;;;3.30;;
39956;SDS011;48483;44.640;7.494;2022-08-25T03:38:30;10.35;;;4.35;;
39956;SDS011;48483;44.640;7.494;2022-08-25T03:40:57;6.70;;;2.58;;
39956;SDS011;48483;44.640;7.494;2022-08-25T03:43:23;5.07;;;2.40;;
39956;SDS011;48483;44.640;7.494;2022-08-25T03:45:50;5.97;;;2.75;;
39956;SDS011;48483;44.640;7.494;2022-08-25T03:48:17;6.25;;;2.53;;
39956;SDS011;48483;44.640;7.494;2022-08-25T03:50:44;3.88;;;2.78;;
39956;SDS011;48483;44.640;7.494;2022-08-25T03:53:13;3.40;;;2.45;;
39956;SDS011;48483;44.640;7.494;2022-08-25T03:55:40;6.00;;;2.90;;
39956;SDS011;48483;44.640;7.494;2022-08-25T03:58:06;3.25;;;2.58;;
39956;SDS011;48483;44.640;7.494;2022-08-25T04:00:33;4.22;;;2.30;;
39956;SDS011;48483;44.640;7.494;2022-08-25T04:03:00;5.32;;;2.70;;
39956;SDS011;48483;44.640;7.494;2022-08-25T04:05:27;3.85;;;2.83;;
39956;SDS011;48483;44.640;7.494;2022-08-25T04:07:54;3.13;;;2.60;;
39956;SDS011;48483;44.640;7.494;2022-08-25T04:10:22;3.15;;;2.33;;
39956;SDS011;48483;44.640;7.494;2022-08-25T04:12:49;5.07;;;2.70;;
39956;SDS011;48483;44.640;7.494;2022-08-25T04:15:15;5.15;;;2.60;;
39956;SDS011;48483;44.640;7.494;2022-08-25T04:17:43;4.80;;;2.80;;
39956;SDS011;48483;44.640;7.494;2022-08-25T04:20:10;4.70;;;2.50;;
39956;SDS011;48483;44.640;7.494;2022-08-25T04:22:37;6.55;;;3.08;;
39956;SDS011;48483;44.640;7.494;2022-08-25T04:25:05;4.85;;;2.72;;
39956;SDS011;48483;44.640;7.494;2022-08-25T04:27:34;5.05;;;2.75;;
39956;SDS011;48483;44.640;7.494;2022-08-25T04:30:02;3.40;;;2.75;;
39956;SDS011;48483;44.640;7.494;2022-08-25T04:32:30;4.25;;;2.65;;
39956;SDS011;48483;44.640;7.494;2022-08-25T04:34:57;4.78;;;2.97;;
39956;SDS011;48483;44.640;7.494;2022-08-25T04:37:24;6.53;;;3.05;;
39956;SDS011;48483;44.640;7.494;2022-08-25T04:39:51;4.95;;;3.72;;
39956;SDS011;48483;44.640;7.494;2022-08-25T04:42:17;5.47;;;2.80;;
39956;SDS011;48483;44.640;7.494;2022-08-25T04:44:45;5.38;;;2.65;;
39956;SDS011;48483;44.640;7.494;2022-08-25T04:47:12;3.28;;;2.80;;
39956;SDS011;48483;44.640;7.494;2022-08-25T04:49:39;6.35;;;3.58;;
39956;SDS011;48483;44.640;7.494;2022-08-25T04:52:06;5.65;;;2.92;;
39956;SDS011;48483;44.640;7.494;2022-08-25T04:54:32;4.38;;;2.70;;
39956;SDS011;48483;44.640;7.494;2022-08-25T04:57:00;4.55;;;2.83;;
39956;SDS011;48483;44.640;7.494;2022-08-25T04:59:27;3.42;;;2.50;;
39956;SDS011;48483;44.640;7.494;2022-08-25T05:01:55;4.30;;;2.70;;
39956;SDS011;48483;44.640;7.494;2022-08-25T05:04:23;3.78;;;3.00;;
39956;SDS011;48483;44.640;7.494;2022-08-25T05:06:50;6.90;;;2.55;;
39956;SDS011;48483;44.640;7.494;2022-08-25T05:09:16;6.30;;;3.53;;
39956;SDS011;48483;44.640;7.494;2022-08-25T05:11:43;5.85;;;2.85;;
39956;SDS011;48483;44.640;7.494;2022-08-25T05:14:10;3.38;;;2.75;;
39956;SDS011;48483;44.640;7.494;2022-08-25T05:16:39;5.95;;;2.78;;
39956;SDS011;48483;44.640;7.494;2022-08-25T05:19:07;4.18;;;2.90;;
39956;SDS011;48483;44.640;7.494;2022-08-25T05:21:34;10.52;;;2.95;;
39956;SDS011;48483;44.640;7.494;2022-08-25T05:24:02;6.72;;;3.95;;
39956;SDS011;48483;44.640;7.494;2022-08-25T05:26:30;6.88;;;3.63;;
39956;SDS011;48483;44.640;7.494;2022-08-25T05:28:58;5.78;;;3.38;;
39956;SDS011;48483;44.640;7.494;2022-08-25T05:31:27;5.65;;;3.67;;
39956;SDS011;48483;44.640;7.494;2022-08-25T05:33:54;8.65;;;4.40;;
39956;SDS011;48483;44.640;7.494;2022-08-25T05:36:23;6.05;;;3.95;;
39956;SDS011;48483;44.640;7.494;2022-08-25T05:38:52;6.03;;;3.92;;
39956;SDS011;48483;44.640;7.494;2022-08-25T05:41:20;4.18;;;2.97;;
39956;SDS011;48483;44.640;7.494;2022-08-25T05:43:50;6.55;;;3.55;;
39956;SDS011;48483;44.640;7.494;2022-08-25T05:46:17;5.63;;;4.05;;
39956;SDS011;48483;44.640;7.494;2022-08-25T05:48:44;7.25;;;4.07;;
39956;SDS011;48483;44.640;7.494;2022-08-25T05:51:11;5.72;;;3.70;;
39956;SDS011;48483;44.640;7.494;2022-08-25T05:53:41;5.90;;;3.53;;
39956;SDS011;48483;44.640;7.494;2022-08-25T05:58:38;4.43;;;3.60;;
39956;SDS011;48483;44.640;7.494;2022-08-25T06:01:06;4.90;;;3.10;;
39956;SDS011;48483;44.640;7.494;2022-08-25T06:03:52;7.65;;;3.83;;
39956;SDS011;48483;44.640;7.494;2022-08-25T06:06:19;6.05;;;3.80;;
39956;SDS011;48483;44.640;7.494;2022-08-25T06:08:47;6.45;;;4.00;;
39956;SDS011;48483;44.640;7.494;2022-08-25T06:11:15;8.23;;;3.83;;
39956;SDS011;48483;44.640;7.494;2022-08-25T06:13:42;5.05;;;3.83;;
39956;SDS011;48483;44.640;7.494;2022-08-25T06:16:08;4.95;;;3.85;;
39956;SDS011;48483;44.640;7.494;2022-08-25T06:18:35;9.63;;;4.15;;
39956;SDS011;48483;44.640;7.494;2022-08-25T06:21:06;6.28;;;3.80;;
39956;SDS011;48483;44.640;7.494;2022-08-25T06:23:35;9.38;;;3.88;;
39956;SDS011;48483;44.640;7.494;2022-08-25T06:26:04;6.63;;;3.63;;
39956;SDS011;48483;44.640;7.494;2022-08-25T06:28:31;13.20;;;3.90;;
39956;SDS011;48483;44.640;7.494;2022-08-25T06:30:57;5.35;;;3.80;;
39956;SDS011;48483;44.640;7.494;2022-08-25T06:33:25;9.55;;;3.70;;
39956;SDS011;48483;44.640;7.494;2022-08-25T06:35:52;14.10;;;3.78;;
39956;SDS011;48483;44.640;7.494;2022-08-25T06:38:20;9.07;;;3.78;;
39956;SDS011;48483;44.640;7.494;2022-08-25T06:40:48;7.05;;;3.13;;
39956;SDS011;48483;44.640;7.494;2022-08-25T06:43:17;6.78;;;3.50;;
39956;SDS011;48483;44.640;7.494;2022-08-25T06:45:44;6.30;;;3.35;;
39956;SDS011;48483;44.640;7.494;2022-08-25T06:48:11;5.63;;;3.55;;
39956;SDS011;48483;44.640;7.494;2022-08-25T06:50:38;5.35;;;3.50;;
39956;SDS011;48483;44.640;7.494;2022-08-25T06:53:05;9.10;;;4.20;;
39956;SDS011;48483;44.640;7.494;2022-08-25T06:55:32;9.80;;;4.22;;
39956;SDS011;48483;44.640;7.494;2022-08-25T06:58:00;10.93;;;4.03;;
39956;SDS011;48483;44.640;7.494;2022-08-25T07:00:29;5.85;;;3.78;;
39956;SDS011;48483;44.640;7.494;2022-08-25T07:02:57;9.00;;;3.58;;
39956;SDS011;48483;44.640;7.494;2022-08-25T07:05:26;11.65;;;3.88;;
39956;SDS011;48483;44.640;7.494;2022-08-25T07:07:53;12.27;;;3.30;;
39956;SDS011;48483;44.640;7.494;2022-08-25T07:10:20;7.20;;;3.28;;
39956;SDS011;48483;44.640;7.494;2022-08-25T07:12:47;12.05;;;4.57;;
39956;SDS011;48483;44.640;7.494;2022-08-25T07:15:14;13.82;;;3.75;;
39956;SDS011;48483;44.640;7.494;2022-08-25T07:17:42;7.22;;;3.58;;
39956;SDS011;48483;44.640;7.494;2022-08-25T07:20:09;7.18;;;2.75;;
39956;SDS011;48483;44.640;7.494;2022-08-25T07:22:36;7.13;;;2.90;;
39956;SDS011;48483;44.640;7.494;2022-08-25T07:25:03;9.13;;;3.17;;
39956;SDS011;48483;44.640;7.494;2022-08-25T07:27:30;5.90;;;3.30;;
39956;SDS011;48483;44.640;7.494;2022-08-25T07:29:57;9.82;;;3.13;;
39956;SDS011;48483;44.640;7.494;2022-08-25T07:32:24;4.90;;;2.92;;
39956;SDS011;48483;44.640;7.494;2022-08-25T07:34:52;6.22;;;3.15;;
39956;SDS011;48483;44.640;7.494;2022-08-25T07:37:37;6.30;;;2.97;;
39956;SDS011;48483;44.640;7.494;2022-08-25T07:40:06;4.78;;;2.28;;
39956;SDS011;48483;44.640;7.494;2022-08-25T07:42:33;3.35;;;2.67;;
39956;SDS011;48483;44.640;7.494;2022-08-25T07:45:00;3.95;;;2.67;;
39956;SDS011;48483;44.640;7.494;2022-08-25T07:47:28;4.50;;;2.25;;
39956;SDS011;48483;44.640;7.494;2022-08-25T07:49:57;6.43;;;2.50;;
39956;SDS011;48483;44.640;7.494;2022-08-25T07:52:24;8.55;;;3.35;;
39956;SDS011;48483;44.640;7.494;2022-08-25T07:54:51;6.10;;;2.72;;
39956;SDS011;48483;44.640;7.494;2022-08-25T07:57:19;3.92;;;2.83;;
39956;SDS011;48483;44.640;7.494;2022-08-25T07:59:47;6.93;;;3.85;;
39956;SDS011;48483;44.640;7.494;2022-08-25T08:02:13;8.52;;;5.25;;
39956;SDS011;48483;44.640;7.494;2022-08-25T08:04:40;11.27;;;5.20;;
39956;SDS011;48483;44.640;7.494;2022-08-25T08:07:09;6.60;;;4.38;;
39956;SDS011;48483;44.640;7.494;2022-08-25T08:09:36;7.15;;;3.50;;
39956;SDS011;48483;44.640;7.494;2022-08-25T08:12:03;6.63;;;3.53;;
39956;SDS011;48483;44.640;7.494;2022-08-25T08:14:30;7.25;;;3.88;;
39956;SDS011;48483;44.640;7.494;2022-08-25T08:16:57;6.00;;;3.42;;
39956;SDS011;48483;44.640;7.494;2022-08-25T08:19:23;4.78;;;2.83;;
39956;SDS011;48483;44.640;7.494;2022-08-25T08:21:50;4.50;;;2.90;;
39956;SDS011;48483;44.640;7.494;2022-08-25T08:24:18;4.78;;;2.80;;
39956;SDS011;48483;44.640;7.494;2022-08-25T08:26:45;5.07;;;3.00;;
39956;SDS011;48483;44.640;7.494;2022-08-25T08:29:12;6.85;;;3.10;;
39956;SDS011;48483;44.640;7.494;2022-08-25T08:31:39;4.90;;;2.95;;
39956;SDS011;48483;44.640;7.494;2022-08-25T08:34:06;9.48;;;2.95;;
39956;SDS011;48483;44.640;7.494;2022-08-25T08:36:33;4.57;;;2.55;;
39956;SDS011;48483;44.640;7.494;2022-08-25T08:39:00;4.45;;;3.00;;
39956;SDS011;48483;44.640;7.494;2022-08-25T08:41:33;5.80;;;2.70;;
39956;SDS011;48483;44.640;7.494;2022-08-25T08:44:30;8.73;;;2.90;;
39956;SDS011;48483;44.640;7.494;2022-08-25T08:47:05;4.68;;;3.50;;
39956;SDS011;48483;44.640;7.494;2022-08-25T08:49:39;4.95;;;2.97;;
39956;SDS011;48483;44.640;7.494;2022-08-25T08:52:10;4.28;;;2.60;;
39956;SDS011;48483;44.640;7.494;2022-08-25T08:57:10;4.25;;;2.38;;
39956;SDS011;48483;44.640;7.494;2022-08-25T08:59:45;5.65;;;3.15;;
39956;SDS011;48483;44.640;7.494;2022-08-25T09:02:19;3.28;;;2.58;;
39956;SDS011;48483;44.640;7.494;2022-08-25T09:04:52;5.43;;;2.65;;
39956;SDS011;48483;44.640;7.494;2022-08-25T09:07:25;4.20;;;2.67;;
39956;SDS011;48483;44.640;7.494;2022-08-25T09:09:56;4.85;;;2.50;;
39956;SDS011;48483;44.640;7.494;2022-08-25T09:12:29;3.42;;;2.53;;
39956;SDS011;48483;44.640;7.494;2022-08-25T09:15:04;4.35;;;2.47;;
39956;SDS011;48483;44.640;7.494;2022-08-25T09:20:48;4.80;;;2.60;;
39956;SDS011;48483;44.640;7.494;2022-08-25T09:23:26;3.55;;;2.58;;
39956;SDS011;48483;44.640;7.494;2022-08-25T09:26:02;2.70;;;2.22;;
39956;SDS011;48483;44.640;7.494;2022-08-25T09:28:45;7.68;;;3.20;;
39956;SDS011;48483;44.640;7.494;2022-08-25T09:31:18;3.55;;;2.75;;
39956;SDS011;48483;44.640;7.494;2022-08-25T09:33:48;5.38;;;2.53;;
39956;SDS011;48483;44.640;7.494;2022-08-25T09:36:18;5.43;;;3.20;;
39956;SDS011;48483;44.640;7.494;2022-08-25T09:38:44;5.28;;;2.75;;
39956;SDS011;48483;44.640;7.494;2022-08-25T09:41:11;4.45;;;3.08;;
39956;SDS011;48483;44.640;7.494;2022-08-25T09:43:41;5.00;;;2.80;;
39956;SDS011;48483;44.640;7.494;2022-08-25T09:46:12;4.60;;;2.50;;
39956;SDS011;48483;44.640;7.494;2022-08-25T09:51:18;4.40;;;2.60;;
39956;SDS011;48483;44.640;7.494;2022-08-25T09:53:50;7.22;;;2.65;;
39956;SDS011;48483;44.640;7.494;2022-08-25T09:56:20;5.32;;;2.50;;
39956;SDS011;48483;44.640;7.494;2022-08-25T09:58:48;3.28;;;2.08;;
39956;SDS011;48483;44.640;7.494;2022-08-25T10:01:18;3.63;;;3.05;;
39956;SDS011;48483;44.640;7.494;2022-08-25T10:06:24;2.50;;;1.75;;
39956;SDS011;48483;44.640;7.494;2022-08-25T10:08:54;5.22;;;2.70;;
39956;SDS011;48483;44.640;7.494;2022-08-25T10:11:37;3.85;;;2.33;;
39956;SDS011;48483;44.640;7.494;2022-08-25T10:14:14;4.47;;;2.88;;
39956;SDS011;48483;44.640;7.494;2022-08-25T10:16:46;6.28;;;2.95;;
39956;SDS011;48483;44.640;7.494;2022-08-25T10:19:22;4.78;;;2.97;;
39956;SDS011;48483;44.640;7.494;2022-08-25T10:22:05;4.35;;;2.85;;
39956;SDS011;48483;44.640;7.494;2022-08-25T10:24:33;3.67;;;2.72;;
39956;SDS011;48483;44.640;7.494;2022-08-25T10:27:01;4.25;;;2.65;;
39956;SDS011;48483;44.640;7.494;2022-08-25T10:29:40;4.25;;;2.25;;
39956;SDS011;48483;44.640;7.494;2022-08-25T10:32:24;2.75;;;2.42;;
39956;SDS011;48483;44.640;7.494;2022-08-25T10:34:58;6.43;;;2.67;;
39956;SDS011;48483;44.640;7.494;2022-08-25T10:37:31;2.80;;;2.13;;
39956;SDS011;48483;44.640;7.494;2022-08-25T10:40:07;6.30;;;3.85;;
39956;SDS011;48483;44.640;7.494;2022-08-25T10:42:42;6.10;;;4.22;;
39956;SDS011;48483;44.640;7.494;2022-08-25T10:45:20;4.97;;;3.97;;
39956;SDS011;48483;44.640;7.494;2022-08-25T10:51:09;6.22;;;3.10;;
39956;SDS011;48483;44.640;7.494;2022-08-25T10:53:54;5.30;;;3.20;;
39956;SDS011;48483;44.640;7.494;2022-08-25T10:56:25;5.05;;;3.03;;
39956;SDS011;48483;44.640;7.494;2022-08-25T10:59:14;5.70;;;3.58;;
39956;SDS011;48483;44.640;7.494;2022-08-25T11:01:55;4.65;;;2.75;;
39956;SDS011;48483;44.640;7.494;2022-08-25T11:04:42;4.97;;;2.45;;
39956;SDS011;48483;44.640;7.494;2022-08-25T11:07:15;4.07;;;2.58;;
39956;SDS011;48483;44.640;7.494;2022-08-25T11:09:48;2.65;;;2.42;;
39956;SDS011;48483;44.640;7.494;2022-08-25T11:12:18;7.80;;;2.70;;
39956;SDS011;48483;44.640;7.494;2022-08-25T11:14:54;3.80;;;2.60;;
39956;SDS011;48483;44.640;7.494;2022-08-25T11:17:25;3.83;;;2.40;;
39956;SDS011;48483;44.640;7.494;2022-08-25T11:19:59;8.05;;;3.38;;
39956;SDS011;48483;44.640;7.494;2022-08-25T11:22:32;4.15;;;2.65;;
39956;SDS011;48483;44.640;7.494;2022-08-25T11:25:06;6.30;;;2.35;;
39956;SDS011;48483;44.640;7.494;2022-08-25T11:27:41;5.13;;;2.75;;
39956;SDS011;48483;44.640;7.494;2022-08-25T11:30:13;5.78;;;2.60;;
39956;SDS011;48483;44.640;7.494;2022-08-25T11:32:43;8.50;;;3.38;;
39956;SDS011;48483;44.640;7.494;2022-08-25T11:35:16;7.15;;;2.38;;
39956;SDS011;48483;44.640;7.494;2022-08-25T11:37:58;3.03;;;1.95;;
39956;SDS011;48483;44.640;7.494;2022-08-25T11:40:44;7.88;;;2.50;;
39956;SDS011;48483;44.640;7.494;2022-08-25T11:43:24;4.10;;;2.30;;
39956;SDS011;48483;44.640;7.494;2022-08-25T11:46:03;4.90;;;2.53;;
39956;SDS011;48483;44.640;7.494;2022-08-25T11:48:43;5.40;;;2.80;;
39956;SDS011;48483;44.640;7.494;2022-08-25T11:51:29;3.58;;;2.20;;
39956;SDS011;48483;44.640;7.494;2022-08-25T11:54:13;4.45;;;2.50;;
39956;SDS011;48483;44.640;7.494;2022-08-25T11:56:49;5.63;;;2.40;;
39956;SDS011;48483;44.640;7.494;2022-08-25T12:02:33;4.57;;;2.45;;
39956;SDS011;48483;44.640;7.494;2022-08-25T12:05:04;13.30;;;4.57;;
39956;SDS011;48483;44.640;7.494;2022-08-25T12:10:57;4.85;;;2.45;;
39956;SDS011;48483;44.640;7.494;2022-08-25T12:13:37;9.10;;;2.40;;
39956;SDS011;48483;44.640;7.494;2022-08-25T12:16:06;5.68;;;2.25;;
39956;SDS011;48483;44.640;7.494;2022-08-25T12:21:53;3.15;;;2.60;;
39956;SDS011;48483;44.640;7.494;2022-08-25T12:24:25;5.45;;;2.78;;
39956;SDS011;48483;44.640;7.494;2022-08-25T12:27:21;3.75;;;2.47;;
39956;SDS011;48483;44.640;7.494;2022-08-25T12:29:52;4.40;;;2.30;;
39956;SDS011;48483;44.640;7.494;2022-08-25T12:32:30;3.35;;;2.33;;
39956;SDS011;48483;44.640;7.494;2022-08-25T12:35:27;4.10;;;2.92;;
39956;SDS011;48483;44.640;7.494;2022-08-25T12:37:57;6.15;;;3.08;;
39956;SDS011;48483;44.640;7.494;2022-08-25T12:40:28;3.58;;;2.40;;
39956;SDS011;48483;44.640;7.494;2022-08-25T12:42:59;6.75;;;2.75;;
39956;SDS011;48483;44.640;7.494;2022-08-25T12:45:36;3.78;;;2.42;;
39956;SDS011;48483;44.640;7.494;2022-08-25T12:51:07;4.57;;;2.65;;
39956;SDS011;48483;44.640;7.494;2022-08-25T12:53:41;4.18;;;2.40;;
39956;SDS011;48483;44.640;7.494;2022-08-25T12:56:17;6.40;;;3.07;;
39956;SDS011;48483;44.640;7.494;2022-08-25T12:58:53;5.78;;;2.72;;
39956;SDS011;48483;44.640;7.494;2022-08-25T13:01:33;7.50;;;3.00;;
39956;SDS011;48483;44.640;7.494;2022-08-25T13:04:26;5.05;;;2.70;;
39956;SDS011;48483;44.640;7.494;2022-08-25T13:07:06;5.53;;;3.00;;
39956;SDS011;48483;44.640;7.494;2022-08-25T13:09:59;5.38;;;3.38;;
39956;SDS011;48483;44.640;7.494;2022-08-25T13:12:39;3.30;;;2.97;;
39956;SDS011;48483;44.640;7.494;2022-08-25T13:15:12;4.68;;;2.60;;
39956;SDS011;48483;44.640;7.494;2022-08-25T13:17:40;4.57;;;2.75;;
39956;SDS011;48483;44.640;7.494;2022-08-25T13:20:11;3.80;;;2.55;;
39956;SDS011;48483;44.640;7.494;2022-08-25T13:22:39;6.30;;;2.55;;
39956;SDS011;48483;44.640;7.494;2022-08-25T13:25:13;5.20;;;2.75;;
39956;SDS011;48483;44.640;7.494;2022-08-25T13:27:42;6.78;;;2.33;;
39956;SDS011;48483;44.640;7.494;2022-08-25T13:30:18;3.88;;;2.85;;
39956;SDS011;48483;44.640;7.494;2022-08-25T13:32:50;3.17;;;2.40;;
39956;SDS011;48483;44.640;7.494;2022-08-25T13:35:17;4.78;;;2.78;;
39956;SDS011;48483;44.640;7.494;2022-08-25T13:37:47;9.68;;;3.05;;
39956;SDS011;48483;44.640;7.494;2022-08-25T13:40:15;2.35;;;2.15;;
39956;SDS011;48483;44.640;7.494;2022-08-25T13:42:49;5.95;;;2.40;;
39956;SDS011;48483;44.640;7.494;2022-08-25T13:47:45;8.27;;;3.55;;
39956;SDS011;48483;44.640;7.494;2022-08-25T13:50:15;6.60;;;2.80;;
39956;SDS011;48483;44.640;7.494;2022-08-25T13:52:46;4.65;;;2.60;;
39956;SDS011;48483;44.640;7.494;2022-08-25T13:55:19;4.13;;;3.08;;
39956;SDS011;48483;44.640;7.494;2022-08-25T13:57:48;4.75;;;2.88;;
39956;SDS011;48483;44.640;7.494;2022-08-25T14:00:24;4.68;;;2.25;;
39956;SDS011;48483;44.640;7.494;2022-08-25T14:02:54;3.58;;;2.83;;
39956;SDS011;48483;44.640;7.494;2022-08-25T14:05:29;7.43;;;3.20;;
39956;SDS011;48483;44.640;7.494;2022-08-25T14:08:03;5.13;;;3.00;;
39956;SDS011;48483;44.640;7.494;2022-08-25T14:10:33;3.97;;;2.75;;
39956;SDS011;48483;44.640;7.494;2022-08-25T14:13:10;3.75;;;2.55;;
39956;SDS011;48483;44.640;7.494;2022-08-25T14:15:39;6.38;;;3.50;;
39956;SDS011;48483;44.640;7.494;2022-08-25T14:18:07;5.35;;;2.20;;
39956;SDS011;48483;44.640;7.494;2022-08-25T14:20:41;5.10;;;2.58;;
39956;SDS011;48483;44.640;7.494;2022-08-25T14:23:11;9.23;;;3.58;;
39956;SDS011;48483;44.640;7.494;2022-08-25T14:25:42;3.63;;;2.70;;
39956;SDS011;48483;44.640;7.494;2022-08-25T14:28:11;4.22;;;2.88;;
39956;SDS011;48483;44.640;7.494;2022-08-25T14:33:07;5.80;;;3.40;;
39956;SDS011;48483;44.640;7.494;2022-08-25T14:35:34;3.80;;;3.22;;
39956;SDS011;48483;44.640;7.494;2022-08-25T14:38:06;3.17;;;2.67;;
39956;SDS011;48483;44.640;7.494;2022-08-25T14:40:34;7.90;;;3.20;;
39956;SDS011;48483;44.640;7.494;2022-08-25T14:43:02;4.88;;;2.88;;
39956;SDS011;48483;44.640;7.494;2022-08-25T14:45:30;5.72;;;3.25;;
39956;SDS011;48483;44.640;7.494;2022-08-25T14:47:57;3.88;;;2.80;;
39956;SDS011;48483;44.640;7.494;2022-08-25T14:50:29;4.25;;;2.50;;
39956;SDS011;48483;44.640;7.494;2022-08-25T14:52:57;3.92;;;2.90;;
39956;SDS011;48483;44.640;7.494;2022-08-25T14:55:24;4.22;;;2.70;;
39956;SDS011;48483;44.640;7.494;2022-08-25T14:57:51;7.38;;;3.05;;
39956;SDS011;48483;44.640;7.494;2022-08-25T15:00:18;5.38;;;3.00;;
39956;SDS011;48483;44.640;7.494;2022-08-25T15:02:46;3.60;;;2.58;;
39956;SDS011;48483;44.640;7.494;2022-08-25T15:05:16;5.43;;;2.80;;
39956;SDS011;48483;44.640;7.494;2022-08-25T15:07:47;16.45;;;3.83;;
39956;SDS011;48483;44.640;7.494;2022-08-25T15:10:32;4.03;;;3.00;;
39956;SDS011;48483;44.640;7.494;2022-08-25T15:12:59;4.70;;;3.45;;
39956;SDS011;48483;44.640;7.494;2022-08-25T15:15:25;7.03;;;3.05;;
39956;SDS011;48483;44.640;7.494;2022-08-25T15:17:55;4.20;;;2.97;;
39956;SDS011;48483;44.640;7.494;2022-08-25T15:20:22;3.85;;;2.65;;
39956;SDS011;48483;44.640;7.494;2022-08-25T15:22:49;6.28;;;3.58;;
39956;SDS011;48483;44.640;7.494;2022-08-25T15:25:15;3.63;;;2.67;;
39956;SDS011;48483;44.640;7.494;2022-08-25T15:27:43;3.63;;;3.22;;
39956;SDS011;48483;44.640;7.494;2022-08-25T15:30:10;4.82;;;4.00;;
39956;SDS011;48483;44.640;7.494;2022-08-25T15:32:37;5.28;;;3.97;;
39956;SDS011;48483;44.640;7.494;2022-08-25T15:35:06;8.80;;;3.25;;
39956;SDS011;48483;44.640;7.494;2022-08-25T15:37:33;6.40;;;3.05;;
39956;SDS011;48483;44.640;7.494;2022-08-25T15:40:00;3.97;;;2.80;;